Time;durP1;ratioP1;P1;durP2;ratioP2;P2;SDS_P1;SDS_P2;PMS_P1;PMS_P2;Temp;Humidity;BMP_temperature;BMP_pressure;BME280_temperature;BME280_humidity;BME280_pressure;Samples;Min_cycle;Max_cycle;Signal;HPM_P1;HPM_P2
2023/06/15 00:01:52;;;;;;;7.40;4.80;;;;;;;15.87;100.00;99807.63;105038;1262;59862;-68
2023/06/15 00:04:20;;;;;;;7.70;4.50;;;;;;;15.82;100.00;99809.84;105302;1257;71713;-74
2023/06/15 00:06:48;;;;;;;10.20;5.60;;;;;;;15.80;100.00;99807.81;105097;1260;65932;-70
2023/06/15 00:09:14;;;;;;;7.00;4.60;;;;;;;15.78;100.00;99804.76;105051;1253;403031;-69
2023/06/15 00:11:42;;;;;;;7.20;5.30;;;;;;;15.77;100.00;99800.23;105127;1260;61685;-68
2023/06/15 00:14:09;;;;;;;9.20;5.10;;;;;;;15.75;100.00;99799.60;105885;1253;60376;-69
2023/06/15 00:16:41;;;;;;;7.20;5.30;;;;;;;15.74;100.00;99798.52;105571;1253;71597;-75
2023/06/15 00:19:09;;;;;;;7.60;5.30;;;;;;;15.74;100.00;99796.52;105637;1253;65736;-68
2023/06/15 00:21:40;;;;;;;7.20;4.90;;;;;;;15.71;100.00;99797.94;105423;1254;71477;-68
2023/06/15 00:24:10;;;;;;;6.60;5.30;;;;;;;15.69;100.00;99802.30;105427;1258;62044;-68
2023/06/15 00:26:37;;;;;;;9.20;6.50;;;;;;;15.67;100.00;99805.34;105675;1252;60347;-69
2023/06/15 00:29:04;;;;;;;6.40;4.80;;;;;;;15.62;100.00;99807.89;105858;1253;71673;-69
2023/06/15 00:31:33;;;;;;;7.60;5.50;;;;;;;15.60;100.00;99805.55;105657;1253;66375;-70
2023/06/15 00:34:01;;;;;;;6.20;4.90;;;;;;;15.57;100.00;99806.98;105338;1259;72535;-69
2023/06/15 00:36:29;;;;;;;8.80;5.10;;;;;;;15.55;100.00;99808.50;105489;1255;60378;-71
2023/06/15 00:38:56;;;;;;;6.90;5.00;;;;;;;15.53;100.00;99809.55;105425;1253;59822;-70
2023/06/15 00:41:23;;;;;;;7.60;5.40;;;;;;;15.48;100.00;99808.74;105492;1254;72045;-69
2023/06/15 00:43:50;;;;;;;7.40;5.10;;;;;;;15.44;100.00;99812.52;105467;1256;66020;-70
2023/06/15 00:46:17;;;;;;;9.10;6.10;;;;;;;15.41;100.00;99812.65;105545;1251;72739;-69
2023/06/15 00:48:44;;;;;;;7.80;5.60;;;;;;;15.34;100.00;99816.55;105810;1256;61811;-75
2023/06/15 00:51:11;;;;;;;9.20;5.30;;;;;;;15.29;100.00;99816.23;105480;1253;60967;-70
2023/06/15 00:53:38;;;;;;;7.50;5.80;;;;;;;15.30;100.00;99820.23;105520;1255;72657;-69
2023/06/15 00:56:05;;;;;;;9.10;5.30;;;;;;;15.24;100.00;99822.60;105193;1256;67096;-69
2023/06/15 00:58:32;;;;;;;6.90;5.60;;;;;;;15.15;100.00;99828.73;105451;1253;72713;-68
2023/06/15 01:00:59;;;;;;;6.70;5.60;;;;;;;15.08;100.00;99826.77;105555;1251;59708;-69
2023/06/15 01:03:26;;;;;;;7.70;5.60;;;;;;;15.04;100.00;99828.85;105503;1256;59627;-69
2023/06/15 01:05:54;;;;;;;7.20;5.30;;;;;;;15.02;100.00;99831.38;106129;1253;71780;-75
2023/06/15 01:08:24;;;;;;;9.30;5.60;;;;;;;14.99;100.00;99829.83;105794;1255;65975;-70
2023/06/15 01:10:53;;;;;;;9.30;5.50;;;;;;;14.99;100.00;99827.61;105569;1256;73217;-75
2023/06/15 01:13:20;;;;;;;9.30;5.40;;;;;;;14.98;100.00;99822.66;105360;1253;62729;-68
2023/06/15 01:15:48;;;;;;;13.60;6.60;;;;;;;14.98;100.00;99823.65;105525;1256;60322;-76
2023/06/15 01:18:20;;;;;;;8.00;5.80;;;;;;;14.99;100.00;99826.56;105372;1257;73689;-68
2023/06/15 01:20:48;;;;;;;7.00;6.00;;;;;;;15.01;100.00;99823.67;105557;1257;66342;-70
2023/06/15 01:23:22;;;;;;;8.00;6.70;;;;;;;15.06;100.00;99823.86;105378;1256;72501;-67
2023/06/15 01:25:49;;;;;;;8.50;6.50;;;;;;;15.08;100.00;99821.40;105548;1254;61811;-75
2023/06/15 01:28:17;;;;;;;10.60;6.70;;;;;;;15.09;100.00;99825.05;105183;1257;59647;-68
2023/06/15 01:30:48;;;;;;;11.20;7.30;;;;;;;15.11;100.00;99821.85;105572;1256;73706;-73
2023/06/15 01:33:15;;;;;;;9.80;7.20;;;;;;;15.14;100.00;99820.91;105357;1254;65883;-68
2023/06/15 01:35:43;;;;;;;7.70;6.80;;;;;;;15.15;100.00;99827.88;105476;1262;72781;-76
2023/06/15 01:38:10;;;;;;;9.20;6.40;;;;;;;15.18;100.00;99829.17;105313;1254;62536;-70
2023/06/15 01:40:38;;;;;;;8.30;6.20;;;;;;;15.20;100.00;99822.65;105507;1253;60117;-70
2023/06/15 01:43:07;;;;;;;11.60;6.50;;;;;;;15.20;100.00;99824.88;105598;1253;71808;-75
2023/06/15 01:45:34;;;;;;;6.90;5.60;;;;;;;15.19;100.00;99821.66;105382;1253;66813;-75
2023/06/15 01:48:02;;;;;;;7.50;6.20;;;;;;;15.19;100.00;99817.91;105407;1259;73160;-69
2023/06/15 01:50:30;;;;;;;8.00;6.30;;;;;;;15.20;100.00;99819.88;105445;1252;61970;-70
2023/06/15 01:52:58;;;;;;;8.20;6.60;;;;;;;15.20;100.00;99821.61;105314;1256;60333;-70
2023/06/15 01:55:26;;;;;;;11.60;7.50;;;;;;;15.23;100.00;99816.91;105493;1254;71672;-69
2023/06/15 01:57:53;;;;;;;7.80;6.40;;;;;;;15.28;100.00;99814.66;105464;1256;67315;-68
2023/06/15 02:00:22;;;;;;;9.10;6.70;;;;;;;15.35;100.00;99821.08;105495;1254;73173;-69
2023/06/15 02:02:50;;;;;;;7.90;6.10;;;;;;;15.41;100.00;99822.55;105629;1256;59739;-74
2023/06/15 02:05:17;;;;;;;7.60;5.70;;;;;;;15.48;100.00;99823.24;105411;1256;60553;-74
2023/06/15 02:07:48;;;;;;;7.40;5.80;;;;;;;15.57;100.00;99821.98;105273;1251;70978;-68
2023/06/15 02:10:16;;;;;;;7.50;5.90;;;;;;;15.61;100.00;99822.45;105728;1256;67161;-70
2023/06/15 02:12:43;;;;;;;7.50;5.90;;;;;;;15.65;100.00;99826.69;105307;1254;72701;-67
2023/06/15 02:15:17;;;;;;;6.00;5.20;;;;;;;15.70;100.00;99827.33;105278;1256;60677;-69
2023/06/15 02:17:46;;;;;;;10.30;4.90;;;;;;;15.75;100.00;99827.70;105501;1256;59638;-74
2023/06/15 02:20:13;;;;;;;6.50;4.70;;;;;;;15.73;100.00;99832.30;105794;1257;72091;-70
2023/06/15 02:22:41;;;;;;;5.80;4.70;;;;;;;15.71;100.00;99836.30;105374;1260;66687;-70
2023/06/15 02:25:08;;;;;;;6.00;5.10;;;;;;;15.72;100.00;99836.36;105547;1257;72678;-70
2023/06/15 02:27:36;;;;;;;7.00;5.40;;;;;;;15.73;100.00;99834.17;105540;1258;59756;-69
2023/06/15 02:30:04;;;;;;;6.50;5.30;;;;;;;15.74;100.00;99829.17;105634;1257;59591;-70
2023/06/15 02:32:36;;;;;;;7.50;5.70;;;;;;;15.81;100.00;99824.73;105488;1256;71759;-68
2023/06/15 02:35:08;;;;;;;8.40;6.50;;;;;;;15.90;100.00;99820.53;105667;1255;67163;-71
2023/06/15 02:37:36;;;;;;;10.60;6.50;;;;;;;16.01;100.00;99814.00;105303;1259;71463;-68
2023/06/15 02:40:05;;;;;;;6.90;6.10;;;;;;;16.14;100.00;99814.02;105376;1260;60497;-70
2023/06/15 02:42:33;;;;;;;6.80;5.70;;;;;;;16.33;100.00;99812.33;105424;1254;59683;-69
2023/06/15 02:45:02;;;;;;;8.80;6.00;;;;;;;16.61;100.00;99811.05;105570;1255;72762;-70
2023/06/15 02:47:29;;;;;;;6.90;5.00;;;;;;;16.95;100.00;99810.55;105394;1256;65926;-70
2023/06/15 02:49:59;;;;;;;8.00;5.60;;;;;;;17.36;100.00;99808.15;106001;1256;72471;-71
2023/06/15 02:52:27;;;;;;;7.10;5.80;;;;;;;17.86;100.00;99810.54;105544;1253;59705;-76
2023/06/15 02:54:54;;;;;;;7.80;5.60;;;;;;;18.26;100.00;99805.38;105544;1258;60130;-69
2023/06/15 02:57:21;;;;;;;7.10;5.30;;;;;;;18.43;100.00;99807.45;105394;1256;73268;-70
2023/06/15 02:59:58;;;;;;;8.20;5.70;;;;;;;18.65;100.00;99808.88;105218;1257;66044;-69
2023/06/15 03:02:26;;;;;;;9.10;6.00;;;;;;;18.81;100.00;99809.52;105678;1257;72881;-71
2023/06/15 03:04:53;;;;;;;8.10;5.40;;;;;;;18.87;100.00;99805.07;105477;1256;60745;-70
2023/06/15 03:07:25;;;;;;;6.20;5.10;;;;;;;18.93;100.00;99798.06;105481;1258;60987;-74
2023/06/15 03:10:07;;;;;;;7.20;4.90;;;;;;;19.23;100.00;99797.98;105271;1258;73158;-68
2023/06/15 03:12:36;;;;;;;5.90;4.00;;;;;;;19.63;100.00;99793.08;105391;1256;67724;-71
2023/06/15 03:15:04;;;;;;;5.50;4.00;;;;;;;20.13;100.00;99787.93;105469;1257;73388;-70
2023/06/15 03:17:34;;;;;;;7.00;4.90;;;;;;;20.64;100.00;99770.84;105515;1257;60063;-70
2023/06/15 03:20:03;;;;;;;5.20;4.60;;;;;;;21.07;100.00;99762.02;105923;1251;60202;-71
2023/06/15 03:22:30;;;;;;;6.20;4.50;;;;;;;21.61;100.00;99750.77;105316;1254;71901;-69
2023/06/15 03:24:57;;;;;;;4.50;4.00;;;;;;;22.36;100.00;99741.45;105420;1255;66934;-70
2023/06/15 03:27:26;;;;;;;6.80;4.70;;;;;;;23.24;100.00;99727.27;105435;1254;71189;-70
2023/06/15 03:29:54;;;;;;;5.10;4.20;;;;;;;24.01;100.00;99706.70;105584;1251;60383;-70
2023/06/15 03:32:21;;;;;;;5.20;4.40;;;;;;;24.68;100.00;99690.73;105498;1259;59334;-69
2023/06/15 03:34:49;;;;;;;8.40;4.60;;;;;;;25.35;100.00;99670.36;105807;1258;73041;-72
2023/06/15 03:37:17;;;;;;;6.20;3.90;;;;;;;25.95;100.00;99658.67;105380;1260;67569;-76
2023/06/15 03:39:44;;;;;;;5.90;3.90;;;;;;;26.48;100.00;99656.52;105303;1254;72774;-69
2023/06/15 03:42:11;;;;;;;5.90;3.80;;;;;;;26.93;100.00;99654.96;105665;1256;60425;-73
2023/06/15 03:44:38;;;;;;;6.70;4.10;;;;;;;27.42;100.00;99649.83;105423;1255;60889;-70
2023/06/15 03:47:05;;;;;;;5.20;3.50;;;;;;;27.92;100.00;99646.79;105443;1256;72932;-70
2023/06/15 03:49:32;;;;;;;5.50;3.60;;;;;;;28.35;100.00;99639.84;105434;1255;66129;-70
2023/06/15 03:51:59;;;;;;;5.80;3.60;;;;;;;28.84;100.00;99636.51;105307;1256;72754;-70
2023/06/15 03:54:26;;;;;;;4.30;3.60;;;;;;;29.28;100.00;99638.52;105752;1254;60076;-72
2023/06/15 03:56:53;;;;;;;4.70;3.90;;;;;;;29.65;100.00;99636.71;105044;1257;59538;-77
2023/06/15 03:59:23;;;;;;;4.50;3.50;;;;;;;30.01;100.00;99637.73;105561;1256;71832;-74
2023/06/15 04:01:50;;;;;;;4.70;3.90;;;;;;;30.45;100.00;99635.73;105419;1257;65899;-70
2023/06/15 04:04:17;;;;;;;4.40;3.70;;;;;;;30.90;100.00;99638.92;105734;1254;71402;-77
2023/06/15 04:06:47;;;;;;;4.60;3.60;;;;;;;31.39;100.00;99637.35;105448;1264;60502;-71
2023/06/15 04:09:16;;;;;;;5.80;3.60;;;;;;;31.88;100.00;99638.67;106174;1256;60169;-70
2023/06/15 04:11:43;;;;;;;4.70;4.10;;;;;;;32.34;98.55;99636.84;105390;1256;73814;-70
2023/06/15 04:14:12;;;;;;;5.90;4.20;;;;;;;32.81;94.04;99637.48;106088;1254;60417;-71
2023/06/15 04:16:39;;;;;;;5.00;4.00;;;;;;;33.23;86.02;99637.84;105593;1255;62608;-77
2023/06/15 04:19:09;;;;;;;6.00;4.30;;;;;;;33.48;81.22;99635.58;105364;1257;60357;-76
2023/06/15 04:21:39;;;;;;;4.80;3.30;;;;;;;33.49;78.24;99637.60;105363;1257;60502;-69
2023/06/15 04:24:07;;;;;;;4.80;4.20;;;;;;;33.12;76.12;99641.35;105389;1256;64049;-70
2023/06/15 04:26:35;;;;;;;5.10;3.90;;;;;;;32.50;80.54;99641.27;105443;1254;60983;-69
2023/06/15 04:29:02;;;;;;;5.10;3.90;;;;;;;31.65;86.60;99645.76;105535;1257;62830;-69
2023/06/15 04:31:33;;;;;;;6.70;3.80;;;;;;;30.60;96.27;99646.48;105417;1255;60495;-69
2023/06/15 04:34:04;;;;;;;6.80;3.70;;;;;;;29.69;100.00;99646.34;105709;1257;60434;-70
2023/06/15 04:36:34;;;;;;;8.80;4.30;;;;;;;29.08;100.00;99646.39;105626;1254;72740;-73
2023/06/15 04:39:02;;;;;;;;;;;;;;;28.55;100.00;99644.60;105481;1256;67319;-68
2023/06/15 04:41:31;;;;;;;4.30;3.60;;;;;;;28.12;100.00;99649.36;105477;1255;72434;-69
2023/06/15 04:44:03;;;;;;;6.20;3.90;;;;;;;27.85;100.00;99654.28;105314;1257;60590;-70
2023/06/15 04:46:30;;;;;;;5.20;4.20;;;;;;;27.66;100.00;99654.31;105791;1254;60470;-69
2023/06/15 04:48:57;;;;;;;5.90;4.30;;;;;;;27.41;100.00;99655.48;105576;1257;72794;-70
2023/06/15 04:51:24;;;;;;;5.30;3.90;;;;;;;27.14;100.00;99659.56;105405;1256;66022;-70
2023/06/15 04:53:51;;;;;;;6.00;4.90;;;;;;;26.85;100.00;99657.77;105362;1257;72661;-70
2023/06/15 04:56:18;;;;;;;4.90;4.40;;;;;;;26.57;100.00;99654.61;105519;1256;61018;-77
2023/06/15 04:58:46;;;;;;;5.90;5.30;;;;;;;26.32;100.00;99652.97;105443;1254;60333;-70
2023/06/15 05:01:13;;;;;;;6.70;4.60;;;;;;;26.18;100.00;99652.42;105436;1256;73935;-70
2023/06/15 05:03:40;;;;;;;7.00;4.30;;;;;;;26.16;100.00;99650.77;105369;1254;67414;-69
2023/06/15 05:06:07;;;;;;;8.00;5.00;;;;;;;26.15;100.00;99655.29;105798;1255;71538;-78
2023/06/15 05:08:35;;;;;;;5.90;4.60;;;;;;;26.17;100.00;99656.40;105478;1257;60615;-77
2023/06/15 05:11:02;;;;;;;5.80;4.30;;;;;;;26.16;100.00;99658.30;105500;1255;61540;-70
2023/06/15 05:13:31;;;;;;;6.50;4.60;;;;;;;26.24;100.00;99654.96;105530;1252;72640;-70
2023/06/15 05:16:00;;;;;;;6.10;4.60;;;;;;;26.75;100.00;99653.46;105616;1255;67186;-72
2023/06/15 05:18:29;;;;;;;5.80;4.60;;;;;;;27.47;100.00;99652.16;105200;1257;73346;-70
2023/06/15 05:20:57;;;;;;;6.20;4.60;;;;;;;28.37;100.00;99644.77;105397;1257;60536;-72
2023/06/15 05:23:26;;;;;;;6.20;4.00;;;;;;;29.40;100.00;99645.76;105353;1253;60423;-70
2023/06/15 05:25:54;;;;;;;5.90;3.80;;;;;;;30.40;100.00;99642.23;105453;1251;72339;-75
2023/06/15 05:28:22;;;;;;;5.80;3.30;;;;;;;31.39;100.00;99639.96;105529;1255;66853;-76
2023/06/15 05:30:49;;;;;;;5.60;3.50;;;;;;;32.26;100.00;99635.00;105651;1256;64482;-69
2023/06/15 05:33:17;;;;;;;5.50;3.80;;;;;;;32.94;95.31;99631.34;105458;1253;60444;-70
2023/06/15 05:35:44;;;;;;;5.30;3.20;;;;;;;33.13;87.67;99635.67;105446;1254;60403;-71
2023/06/15 05:38:11;;;;;;;3.90;3.00;;;;;;;32.94;84.57;99640.83;105497;1255;64314;-69
2023/06/15 05:40:40;;;;;;;6.60;3.50;;;;;;;32.60;87.20;99643.95;105624;1254;60447;-72
2023/06/15 05:43:07;;;;;;;6.10;3.20;;;;;;;32.42;89.66;99649.58;105160;1255;64948;-72
2023/06/15 05:45:35;;;;;;;6.10;3.50;;;;;;;32.66;90.20;99649.65;105380;1257;60403;-74
2023/06/15 05:48:07;;;;;;;8.70;3.90;;;;;;;33.14;85.30;99649.73;105244;1258;60293;-70
2023/06/15 05:50:35;;;;;;;6.40;3.40;;;;;;;33.64;80.10;99649.05;105833;1256;65735;-69
2023/06/15 05:53:03;;;;;;;7.00;3.60;;;;;;;34.16;73.70;99648.31;105328;1254;60342;-70
2023/06/15 05:55:31;;;;;;;7.10;3.70;;;;;;;34.72;65.79;99646.73;105517;1256;62807;-70
2023/06/15 05:57:58;;;;;;;7.00;3.40;;;;;;;35.25;59.11;99644.77;105224;1256;60412;-69
2023/06/15 06:00:29;;;;;;;6.20;3.80;;;;;;;35.62;52.91;99646.11;106069;1257;60534;-70
2023/06/15 06:02:58;;;;;;;5.10;3.20;;;;;;;35.79;51.97;99646.04;105445;1253;64006;-73
2023/06/15 06:05:47;;;;;;;4.10;3.40;;;;;;;36.18;50.88;99643.88;105434;1251;60415;-68
2023/06/15 06:08:14;;;;;;;4.80;3.80;;;;;;;36.60;47.36;99636.98;105808;1254;63935;-73
2023/06/15 06:10:42;;;;;;;6.40;4.00;;;;;;;36.99;45.58;99630.14;105525;1254;60984;-69
2023/06/15 06:13:31;;;;;;;4.40;3.30;;;;;;;37.35;43.28;99636.30;105420;1251;60559;-68
2023/06/15 06:16:00;;;;;;;5.00;3.60;;;;;;;37.29;40.61;99634.01;105894;1257;65829;-68
2023/06/15 06:18:28;;;;;;;6.30;3.90;;;;;;;36.78;41.16;99632.34;105210;1254;60427;-67
2023/06/15 06:20:55;;;;;;;4.90;3.50;;;;;;;36.36;43.49;99639.38;105430;1251;64122;-69
2023/06/15 06:23:22;;;;;;;8.60;3.90;;;;;;;36.30;45.92;99635.89;105319;1255;60419;-69
2023/06/15 06:25:49;;;;;;;6.40;3.60;;;;;;;36.52;46.57;99639.31;105365;1255;60329;-67
2023/06/15 06:28:17;;;;;;;7.40;3.50;;;;;;;36.79;44.92;99641.35;105644;1257;65321;-74
2023/06/15 06:30:44;;;;;;;6.50;3.00;;;;;;;36.99;44.28;99639.05;105482;1256;60446;-68
2023/06/15 06:33:11;;;;;;;6.90;4.10;;;;;;;37.31;44.09;99635.80;105506;1254;62493;-68
2023/06/15 06:35:38;;;;;;;4.90;3.60;;;;;;;37.67;42.13;99634.39;105462;1255;60364;-68
2023/06/15 06:38:05;;;;;;;4.80;3.70;;;;;;;38.05;40.38;99630.83;105823;1254;60448;-69
2023/06/15 06:40:32;;;;;;;6.40;4.00;;;;;;;38.31;38.91;99632.02;105439;1254;65311;-68
2023/06/15 06:42:59;;;;;;;4.00;3.60;;;;;;;38.41;38.15;99632.21;105485;1252;60537;-67
2023/06/15 06:45:27;;;;;;;5.20;3.70;;;;;;;38.44;37.24;99632.84;105850;1254;64149;-68
2023/06/15 06:47:56;;;;;;;6.50;4.10;;;;;;;38.24;37.71;99628.27;105404;1251;60492;-73
2023/06/15 06:50:23;;;;;;;5.00;3.70;;;;;;;38.16;37.88;99621.63;105613;1256;60430;-70
2023/06/15 06:52:51;;;;;;;4.80;3.80;;;;;;;38.21;38.06;99617.67;105506;1251;64001;-68
2023/06/15 06:55:19;;;;;;;7.90;4.00;;;;;;;38.32;38.64;99618.48;105626;1251;60297;-68
2023/06/15 06:57:47;;;;;;;5.00;3.50;;;;;;;38.46;37.59;99621.55;105558;1254;64160;-68
2023/06/15 07:00:15;;;;;;;5.50;3.80;;;;;;;38.43;37.09;99625.83;105903;1255;60555;-69
2023/06/15 07:02:42;;;;;;;6.70;4.60;;;;;;;38.29;37.15;99618.02;105486;1251;60661;-68
2023/06/15 07:05:10;;;;;;;4.60;3.50;;;;;;;38.13;37.22;99623.17;105762;1254;65608;-68
2023/06/15 07:07:37;;;;;;;4.30;3.40;;;;;;;37.99;38.54;99626.25;105523;1255;60469;-69
2023/06/15 07:10:05;;;;;;;4.50;3.80;;;;;;;37.85;38.75;99623.36;105486;1257;64061;-69
2023/06/15 07:12:33;;;;;;;7.10;3.40;;;;;;;37.69;39.60;99624.92;105359;1256;60399;-68
2023/06/15 07:15:00;;;;;;;4.60;3.30;;;;;;;37.66;40.94;99621.95;105436;1255;60324;-68
2023/06/15 07:17:27;;;;;;;5.80;3.20;;;;;;;37.89;40.64;99621.52;105573;1256;65292;-68
2023/06/15 07:19:54;;;;;;;7.30;3.50;;;;;;;38.17;39.29;99622.09;105447;1255;60418;-69
2023/06/15 07:22:21;;;;;;;5.60;3.80;;;;;;;38.44;37.93;99620.07;105694;1255;64065;-72
2023/06/15 07:24:48;;;;;;;5.10;3.60;;;;;;;38.46;37.77;99614.70;105408;1253;60412;-69
2023/06/15 07:27:16;;;;;;;5.80;3.80;;;;;;;38.24;37.27;99614.64;105751;1254;60323;-70
2023/06/15 07:29:43;;;;;;;5.30;3.50;;;;;;;37.94;39.11;99616.58;105520;1254;63861;-76
2023/06/15 07:32:10;;;;;;;5.20;3.40;;;;;;;37.90;39.58;99617.96;105317;1254;60326;-70
2023/06/15 07:34:38;;;;;;;4.30;3.40;;;;;;;37.96;39.21;99621.02;105477;1257;62902;-69
2023/06/15 07:37:05;;;;;;;4.50;3.10;;;;;;;37.82;39.69;99619.94;105430;1251;60502;-70
2023/06/15 07:39:35;;;;;;;5.20;2.90;;;;;;;37.64;40.39;99616.73;105482;1251;60965;-69
2023/06/15 07:42:03;;;;;;;5.20;2.90;;;;;;;37.50;41.52;99619.55;105646;1251;63829;-70
2023/06/15 07:44:30;;;;;;;4.60;3.40;;;;;;;37.22;42.04;99621.91;105981;1252;60419;-72
2023/06/15 07:46:57;;;;;;;4.60;3.10;;;;;;;36.83;45.44;99624.02;105733;1251;62473;-71
2023/06/15 07:49:25;;;;;;;4.60;3.40;;;;;;;36.69;45.34;99629.39;105670;1257;60435;-73
2023/06/15 07:52:11;;;;;;;5.70;3.00;;;;;;;36.41;45.97;99628.80;106001;1253;60415;-72
2023/06/15 07:54:38;;;;;;;5.50;3.10;;;;;;;36.15;49.69;99630.29;105672;1254;63868;-69
2023/06/15 07:57:05;;;;;;;10.40;3.20;;;;;;;36.09;52.10;99629.84;105480;1254;60417;-70
2023/06/15 07:59:32;;;;;;;4.80;2.90;;;;;;;36.06;51.83;99630.20;105706;1252;63107;-69
2023/06/15 08:02:02;;;;;;;5.10;2.60;;;;;;;35.83;52.27;99634.94;105761;1257;60541;-74
2023/06/15 08:04:30;;;;;;;4.70;2.80;;;;;;;35.40;54.44;99632.77;105398;1257;60426;-69
2023/06/15 08:06:57;;;;;;;5.00;3.00;;;;;;;35.07;55.77;99630.32;105424;1252;65260;-68
2023/06/15 08:09:24;;;;;;;3.90;2.50;;;;;;;34.66;64.13;99630.16;105830;1252;60392;-69
2023/06/15 08:11:51;;;;;;;6.30;3.00;;;;;;;34.23;67.77;99632.99;106350;1253;62588;-70
2023/06/15 08:14:19;;;;;;;7.10;3.00;;;;;;;33.89;72.75;99629.66;105784;1257;60954;-69
2023/06/15 08:16:47;;;;;;;5.00;2.80;;;;;;;33.59;76.83;99628.09;109213;1252;58436;-70
2023/06/15 08:19:14;;;;;;;6.00;2.90;;;;;;;33.61;80.18;99624.07;109034;1253;71902;-71
2023/06/15 08:21:41;;;;;;;5.60;3.50;;;;;;;33.79;76.96;99622.42;108307;1252;66481;-70
2023/06/15 08:24:08;;;;;;;6.40;3.30;;;;;;;33.83;76.63;99621.66;105945;1257;62704;-73
2023/06/15 08:26:35;;;;;;;4.50;2.50;;;;;;;33.81;78.05;99621.61;105676;1257;60399;-69
2023/06/15 08:29:02;;;;;;;4.60;2.40;;;;;;;33.81;76.83;99624.17;105949;1252;60429;-67
2023/06/15 08:31:50;;;;;;;5.90;3.10;;;;;;;33.81;81.58;99625.10;105926;1254;65023;-67
2023/06/15 08:34:17;;;;;;;7.90;3.00;;;;;;;33.90;79.31;99624.73;106119;1253;60332;-69
2023/06/15 08:36:45;;;;;;;4.00;2.90;;;;;;;34.03;76.54;99624.09;105591;1254;64056;-70
2023/06/15 08:39:12;;;;;;;4.80;3.10;;;;;;;34.38;76.78;99617.74;105835;1257;60510;-67
2023/06/15 08:41:39;;;;;;;5.20;2.80;;;;;;;34.79;72.67;99614.98;105598;1252;60422;-69
2023/06/15 08:44:06;;;;;;;4.40;2.80;;;;;;;35.06;66.95;99618.02;105604;1253;65275;-73
2023/06/15 08:46:33;;;;;;;4.40;3.00;;;;;;;35.16;66.28;99615.94;105728;1255;60422;-68
2023/06/15 08:49:00;;;;;;;7.00;2.60;;;;;;;35.29;65.31;99615.98;105827;1259;64120;-70
2023/06/15 08:51:27;;;;;;;3.80;2.60;;;;;;;35.52;60.02;99618.09;106036;1253;60460;-69
2023/06/15 08:53:57;;;;;;;7.90;3.30;;;;;;;35.64;57.47;99618.73;105870;1257;59462;-69
2023/06/15 08:56:26;;;;;;;6.20;2.60;;;;;;;35.63;57.49;99618.80;106033;1257;65093;-73
2023/06/15 08:58:53;;;;;;;5.80;2.90;;;;;;;35.40;58.30;99616.98;105957;1251;60415;-69
2023/06/15 09:01:25;;;;;;;6.80;2.70;;;;;;;35.19;60.04;99615.20;105685;1256;64088;-72
2023/06/15 09:03:54;;;;;;;7.10;3.00;;;;;;;34.75;62.11;99615.72;105570;1251;60469;-69
2023/06/15 09:06:22;;;;;;;5.20;2.90;;;;;;;34.36;64.00;99616.69;106032;1251;60428;-74
2023/06/15 09:08:49;;;;;;;7.00;3.90;;;;;;;34.03;65.96;99618.22;105704;1257;66037;-69
2023/06/15 09:11:17;;;;;;;5.50;3.10;;;;;;;33.76;72.65;99623.60;105486;1255;67814;-77
2023/06/15 09:13:45;;;;;;;4.60;2.90;;;;;;;33.49;76.77;99627.86;105200;1254;63719;-74
2023/06/15 09:16:12;;;;;;;6.50;3.30;;;;;;;33.37;83.68;99629.02;105725;1251;62312;-74
2023/06/15 09:18:45;;;;;;;4.40;2.80;;;;;;;33.29;83.83;99625.48;106662;1255;60358;-74
2023/06/15 09:21:16;;;;;;;7.00;3.30;;;;;;;33.00;83.79;99624.88;105552;1256;66559;-74
2023/06/15 09:23:45;;;;;;;6.60;2.90;;;;;;;32.90;85.06;99627.92;106468;1254;67318;-71
2023/06/15 09:26:23;;;;;;;7.30;3.30;;;;;;;33.00;83.15;99624.00;105643;1251;64562;-73
2023/06/15 09:28:52;;;;;;;4.60;3.00;;;;;;;33.05;84.34;99621.58;105330;1259;60479;-72
2023/06/15 09:31:35;;;;;;;5.30;2.70;;;;;;;32.97;88.85;99619.77;105337;1251;60402;-71
2023/06/15 09:34:02;;;;;;;4.50;3.00;;;;;;;32.93;90.00;99621.98;106263;1253;65301;-74
2023/06/15 09:36:49;;;;;;;7.60;3.40;;;;;;;32.67;91.01;99624.77;106406;1256;60538;-76
2023/06/15 09:39:22;;;;;;;5.50;3.50;;;;;;;32.17;93.82;99627.59;106323;1256;63992;-74
2023/06/15 09:41:53;;;;;;;12.70;4.10;;;;;;;31.91;97.16;99631.48;105719;1251;60457;-73
2023/06/15 09:44:25;;;;;;;;;;;;;;;31.80;98.85;99627.66;105630;1256;60361;-71
2023/06/15 09:46:53;;;;;;;6.40;3.00;;;;;;;31.66;100.00;99621.95;105665;1253;65150;-75
2023/06/15 09:49:23;;;;;;;5.00;3.60;;;;;;;31.73;100.00;99619.36;105812;1256;60462;-75
2023/06/15 09:51:50;;;;;;;9.20;4.10;;;;;;;32.09;100.00;99616.49;106799;1255;64019;-71
2023/06/15 09:54:20;;;;;;;4.70;2.80;;;;;;;32.68;96.60;99612.70;105530;1251;60442;-71
2023/06/15 09:56:48;;;;;;;7.00;3.70;;;;;;;33.12;92.28;99611.64;106378;1256;60340;-71
2023/06/15 09:59:15;;;;;;;6.80;3.50;;;;;;;33.55;89.41;99607.77;106417;1258;65217;-70
2023/06/15 10:01:50;;;;;;;6.00;3.10;;;;;;;33.90;83.40;99609.45;106240;1253;60463;-74
2023/06/15 10:04:18;;;;;;;5.50;2.80;;;;;;;33.95;80.54;99614.35;105408;1259;72836;-74
2023/06/15 10:06:50;;;;;;;6.30;3.20;;;;;;;33.75;79.56;99609.74;106492;1251;60422;-70
2023/06/15 10:09:22;;;;;;;4.90;2.80;;;;;;;33.44;81.84;99612.09;106653;1251;60456;-71
2023/06/15 10:11:49;;;;;;;7.00;3.50;;;;;;;32.97;85.78;99612.52;105462;1252;73754;-78
2023/06/15 10:14:29;;;;;;;6.30;3.20;;;;;;;32.74;90.71;99612.54;105421;1253;60626;-76
2023/06/15 10:17:06;;;;;;;7.60;3.20;;;;;;;32.51;91.40;99612.03;106432;1251;63734;-72
2023/06/15 10:19:41;;;;;;;6.90;3.40;;;;;;;32.20;94.60;99608.48;105872;1253;59353;-74
2023/06/15 10:22:08;;;;;;;5.70;3.20;;;;;;;32.21;99.17;99607.77;106392;1253;60440;-72
2023/06/15 10:24:35;;;;;;;5.90;2.70;;;;;;;32.61;98.44;99606.44;105339;1253;64022;-72
2023/06/15 10:27:03;;;;;;;7.40;3.20;;;;;;;33.06;88.76;99607.25;105812;1254;60350;-71
2023/06/15 10:29:41;;;;;;;6.30;3.60;;;;;;;33.24;79.27;99605.42;105529;1255;63568;-73
2023/06/15 10:32:20;;;;;;;5.70;3.50;;;;;;;33.16;79.14;99607.88;105343;1257;60443;-71
2023/06/15 10:35:16;;;;;;;7.20;3.60;;;;;;;32.90;86.37;99608.27;105479;1252;60770;-70
2023/06/15 10:37:58;;;;;;;5.30;3.80;;;;;;;32.41;93.98;99608.83;105204;1256;63844;-71
2023/06/15 10:40:30;;;;;;;5.70;3.60;;;;;;;31.94;96.37;99609.66;105462;1253;60370;-75
2023/06/15 10:43:01;;;;;;;5.60;3.40;;;;;;;31.63;98.03;99605.14;105348;1251;62886;-74
2023/06/15 10:45:29;;;;;;;6.10;3.30;;;;;;;31.70;100.00;99600.89;105169;1256;60725;-76
2023/06/15 10:47:58;;;;;;;5.70;3.60;;;;;;;31.92;100.00;99601.77;105747;1251;60287;-74
2023/06/15 10:50:26;;;;;;;5.00;3.10;;;;;;;32.03;97.72;99599.23;106395;1251;66572;-72
2023/06/15 10:52:54;;;;;;;5.50;3.80;;;;;;;32.04;95.39;99602.89;105788;1253;60594;-73
2023/06/15 10:55:26;;;;;;;6.50;3.70;;;;;;;32.07;98.42;99599.73;105521;1251;64054;-73
2023/06/15 10:58:26;;;;;;;11.40;3.40;;;;;;;32.07;100.00;99599.44;105239;1251;60383;-74
2023/06/15 11:01:13;;;;;;;7.50;3.60;;;;;;;31.78;99.89;99597.19;104884;1256;60356;-73
2023/06/15 11:03:41;;;;;;;5.20;3.30;;;;;;;31.24;100.00;99600.15;106403;1253;72628;-74
2023/06/15 11:06:18;;;;;;;6.00;3.50;;;;;;;31.09;100.00;99600.91;106636;1251;67086;-75
2023/06/15 11:08:47;;;;;;;6.80;3.60;;;;;;;31.11;100.00;99600.93;106334;1253;71775;-74
2023/06/15 11:11:33;;;;;;;5.20;3.10;;;;;;;31.10;100.00;99598.56;106274;1252;60531;-74
2023/06/15 11:14:26;;;;;;;6.30;4.20;;;;;;;31.05;100.00;99596.02;106183;1259;60342;-74
2023/06/15 11:17:03;;;;;;;6.90;3.30;;;;;;;31.09;100.00;99595.22;106559;1253;72820;-74
2023/06/15 11:19:30;;;;;;;6.90;3.80;;;;;;;31.18;100.00;99592.05;106472;1253;60396;-74
2023/06/15 11:22:04;;;;;;;6.40;3.60;;;;;;;31.44;100.00;99590.20;106292;1253;63929;-70
2023/06/15 11:24:36;;;;;;;6.70;3.50;;;;;;;31.81;100.00;99592.06;105462;1253;60524;-70
2023/06/15 11:27:05;;;;;;;6.00;3.70;;;;;;;32.09;100.00;99592.61;105876;1253;60422;-73
2023/06/15 11:29:37;;;;;;;8.50;3.80;;;;;;;32.46;99.96;99586.77;105481;1256;63918;-72
2023/06/15 11:32:05;;;;;;;8.70;4.20;;;;;;;32.57;98.34;99584.59;105527;1253;60712;-73